SFO weather

San Francisco International Airport
San Francisco, California, United States

Public forecast

Using degrees Fahrenheit for public forecast. Weather courtesy of forecast.io.

Current aviation weather report (METAR) for San Francisco International Airport

Retrieved 2019/10/17 03:56 UTC (31 minutes ago):

KSFO 170356Z 32005KT 10SM FEW060 OVC150 16/10 A2990 RMK AO2 SLP124 T01560100

Aviation forecast (TAF) for San Francisco International Airport

Retrieved 2019-10-17 00:30 UTC (4 hours ago):

TAF KSFO 162328Z 1700/1806 27016KT P6SM BKN200 FM170300 27011KT P6SM SCT020 SCT050 FM170600 25009KT P6SM -SHRA BKN014 BKN050 FM171100 29013KT P6SM BKN014 FM171800 29014KT P6SM SCT015 FM172100 29018G25KT P6SM FEW015 FM180400 29012KT P6SM FEW010